Terminal Aerodrome Forecast
Issued by NWS Norman, OK

Home | Current Version | Previous Version | Text Only | Print | Product List | Glossary On
Versions: 1 2 3 4 5 6 7 8 9 10 11 12 13
000
FTUS44 KOUN 111521 AAA
TAFSPS
TAF AMD
KSPS 111521Z 1115/1212 20018G24KT P6SM OVC250
     FM111600 21016G25KT P6SM BKN250
     FM111900 25013KT P6SM BKN250
     FM112200 34012KT P6SM BKN250
     FM120800 36008KT P6SM SCT250=

USA.gov is the U.S. government's official web portal to all federal, state and local government web resources and services.